sensor_id;sensor_type;location;lat;lon;timestamp;P1;durP1;ratioP1;P2;durP2;ratioP2
66609;SDS011;53468;48.276;14.416;2023-01-30T00:04:32;21.20;;;10.25;;
66609;SDS011;53468;48.276;14.416;2023-01-30T00:09:36;22.95;;;10.68;;
66609;SDS011;53468;48.276;14.416;2023-01-30T00:14:37;25.05;;;12.02;;
66609;SDS011;53468;48.276;14.416;2023-01-30T00:19:40;23.80;;;12.13;;
66609;SDS011;53468;48.276;14.416;2023-01-30T00:24:43;17.90;;;9.43;;
66609;SDS011;53468;48.276;14.416;2023-01-30T00:29:45;20.80;;;12.02;;
66609;SDS011;53468;48.276;14.416;2023-01-30T00:34:47;21.02;;;12.55;;
66609;SDS011;53468;48.276;14.416;2023-01-30T00:39:50;20.42;;;11.20;;
66609;SDS011;53468;48.276;14.416;2023-01-30T00:44:52;21.48;;;11.32;;
66609;SDS011;53468;48.276;14.416;2023-01-30T00:50:11;20.95;;;11.18;;
66609;SDS011;53468;48.276;14.416;2023-01-30T00:55:15;23.35;;;10.98;;
66609;SDS011;53468;48.276;14.416;2023-01-30T01:00:17;19.52;;;10.50;;
66609;SDS011;53468;48.276;14.416;2023-01-30T01:05:20;20.35;;;10.52;;
66609;SDS011;53468;48.276;14.416;2023-01-30T01:10:23;20.90;;;10.50;;
66609;SDS011;53468;48.276;14.416;2023-01-30T01:15:25;24.42;;;12.98;;
66609;SDS011;53468;48.276;14.416;2023-01-30T01:20:27;22.25;;;12.63;;
66609;SDS011;53468;48.276;14.416;2023-01-30T01:25:31;20.15;;;10.75;;
66609;SDS011;53468;48.276;14.416;2023-01-30T01:30:33;26.55;;;12.93;;
66609;SDS011;53468;48.276;14.416;2023-01-30T01:35:39;19.35;;;10.55;;
66609;SDS011;53468;48.276;14.416;2023-01-30T01:40:45;24.05;;;11.68;;
66609;SDS011;53468;48.276;14.416;2023-01-30T01:46:04;21.77;;;10.18;;
66609;SDS011;53468;48.276;14.416;2023-01-30T01:51:10;19.13;;;10.40;;
66609;SDS011;53468;48.276;14.416;2023-01-30T01:56:21;16.95;;;9.57;;
66609;SDS011;53468;48.276;14.416;2023-01-30T02:01:25;20.85;;;10.70;;
66609;SDS011;53468;48.276;14.416;2023-01-30T02:06:28;17.83;;;9.68;;
66609;SDS011;53468;48.276;14.416;2023-01-30T02:11:33;18.13;;;9.55;;
66609;SDS011;53468;48.276;14.416;2023-01-30T02:16:41;18.65;;;9.40;;
66609;SDS011;53468;48.276;14.416;2023-01-30T02:27:32;17.95;;;10.07;;
66609;SDS011;53468;48.276;14.416;2023-01-30T02:32:54;18.50;;;9.05;;
66609;SDS011;53468;48.276;14.416;2023-01-30T02:38:11;18.52;;;10.63;;
66609;SDS011;53468;48.276;14.416;2023-01-30T02:43:25;18.98;;;9.63;;
66609;SDS011;53468;48.276;14.416;2023-01-30T02:48:36;16.20;;;8.85;;
66609;SDS011;53468;48.276;14.416;2023-01-30T02:53:42;18.40;;;9.77;;
66609;SDS011;53468;48.276;14.416;2023-01-30T02:58:47;19.73;;;9.15;;
66609;SDS011;53468;48.276;14.416;2023-01-30T03:04:01;20.35;;;10.05;;
66609;SDS011;53468;48.276;14.416;2023-01-30T03:09:19;19.17;;;10.25;;
66609;SDS011;53468;48.276;14.416;2023-01-30T03:14:31;19.67;;;10.52;;
66609;SDS011;53468;48.276;14.416;2023-01-30T03:19:44;22.45;;;11.45;;
66609;SDS011;53468;48.276;14.416;2023-01-30T03:24:47;19.25;;;9.55;;
66609;SDS011;53468;48.276;14.416;2023-01-30T03:29:51;20.83;;;9.80;;
66609;SDS011;53468;48.276;14.416;2023-01-30T03:34:55;19.27;;;10.30;;
66609;SDS011;53468;48.276;14.416;2023-01-30T03:39:57;20.40;;;9.60;;
66609;SDS011;53468;48.276;14.416;2023-01-30T03:44:59;20.83;;;10.73;;
66609;SDS011;53468;48.276;14.416;2023-01-30T03:50:03;19.60;;;10.50;;
66609;SDS011;53468;48.276;14.416;2023-01-30T03:55:06;17.65;;;9.77;;
66609;SDS011;53468;48.276;14.416;2023-01-30T04:00:09;19.67;;;9.85;;
66609;SDS011;53468;48.276;14.416;2023-01-30T04:05:13;21.92;;;10.85;;
66609;SDS011;53468;48.276;14.416;2023-01-30T04:10:15;20.17;;;10.95;;
66609;SDS011;53468;48.276;14.416;2023-01-30T04:15:19;25.20;;;12.55;;
66609;SDS011;53468;48.276;14.416;2023-01-30T04:20:23;20.52;;;11.25;;
66609;SDS011;53468;48.276;14.416;2023-01-30T04:25:25;24.27;;;11.80;;
66609;SDS011;53468;48.276;14.416;2023-01-30T04:30:27;20.73;;;10.65;;
66609;SDS011;53468;48.276;14.416;2023-01-30T04:35:31;20.95;;;9.50;;
66609;SDS011;53468;48.276;14.416;2023-01-30T04:40:33;20.80;;;10.80;;
66609;SDS011;53468;48.276;14.416;2023-01-30T04:45:35;22.08;;;10.73;;
66609;SDS011;53468;48.276;14.416;2023-01-30T04:50:39;22.23;;;11.15;;
66609;SDS011;53468;48.276;14.416;2023-01-30T04:55:42;22.40;;;11.13;;
66609;SDS011;53468;48.276;14.416;2023-01-30T05:00:44;21.77;;;10.23;;
66609;SDS011;53468;48.276;14.416;2023-01-30T05:05:48;21.25;;;11.50;;
66609;SDS011;53468;48.276;14.416;2023-01-30T05:10:51;22.77;;;11.10;;
66609;SDS011;53468;48.276;14.416;2023-01-30T05:15:53;23.45;;;11.90;;
66609;SDS011;53468;48.276;14.416;2023-01-30T05:21:02;29.73;;;11.98;;
66609;SDS011;53468;48.276;14.416;2023-01-30T05:26:05;25.90;;;11.80;;
66609;SDS011;53468;48.276;14.416;2023-01-30T05:31:08;29.05;;;13.15;;
66609;SDS011;53468;48.276;14.416;2023-01-30T05:36:14;26.65;;;12.98;;
66609;SDS011;53468;48.276;14.416;2023-01-30T05:41:17;24.13;;;12.52;;
66609;SDS011;53468;48.276;14.416;2023-01-30T05:46:19;26.50;;;12.50;;
66609;SDS011;53468;48.276;14.416;2023-01-30T05:51:24;25.98;;;12.38;;
66609;SDS011;53468;48.276;14.416;2023-01-30T05:56:27;28.52;;;13.52;;
66609;SDS011;53468;48.276;14.416;2023-01-30T06:01:32;27.17;;;13.02;;
66609;SDS011;53468;48.276;14.416;2023-01-30T06:06:35;27.45;;;14.48;;
66609;SDS011;53468;48.276;14.416;2023-01-30T06:11:37;29.92;;;14.73;;
66609;SDS011;53468;48.276;14.416;2023-01-30T06:16:39;32.35;;;13.90;;
66609;SDS011;53468;48.276;14.416;2023-01-30T06:21:44;32.50;;;14.73;;
66609;SDS011;53468;48.276;14.416;2023-01-30T06:26:45;28.50;;;14.93;;
66609;SDS011;53468;48.276;14.416;2023-01-30T06:31:47;32.58;;;13.63;;
66609;SDS011;53468;48.276;14.416;2023-01-30T06:36:51;31.27;;;13.00;;
66609;SDS011;53468;48.276;14.416;2023-01-30T06:41:53;31.48;;;14.20;;
66609;SDS011;53468;48.276;14.416;2023-01-30T06:46:55;22.98;;;12.25;;
66609;SDS011;53468;48.276;14.416;2023-01-30T06:51:59;34.97;;;14.60;;
66609;SDS011;53468;48.276;14.416;2023-01-30T06:57:01;31.30;;;15.15;;
66609;SDS011;53468;48.276;14.416;2023-01-30T07:02:03;25.60;;;12.93;;
66609;SDS011;53468;48.276;14.416;2023-01-30T07:07:07;29.77;;;12.85;;
66609;SDS011;53468;48.276;14.416;2023-01-30T07:12:09;28.17;;;12.75;;
66609;SDS011;53468;48.276;14.416;2023-01-30T07:17:11;29.48;;;14.52;;
66609;SDS011;53468;48.276;14.416;2023-01-30T07:22:15;26.52;;;12.05;;
66609;SDS011;53468;48.276;14.416;2023-01-30T07:27:17;25.00;;;12.30;;
66609;SDS011;53468;48.276;14.416;2023-01-30T07:32:19;28.20;;;13.73;;
66609;SDS011;53468;48.276;14.416;2023-01-30T07:37:23;26.27;;;11.63;;
66609;SDS011;53468;48.276;14.416;2023-01-30T07:42:25;24.13;;;11.55;;
66609;SDS011;53468;48.276;14.416;2023-01-30T07:47:27;27.83;;;12.82;;
66609;SDS011;53468;48.276;14.416;2023-01-30T07:52:31;24.17;;;13.38;;
66609;SDS011;53468;48.276;14.416;2023-01-30T07:57:33;22.45;;;11.48;;
66609;SDS011;53468;48.276;14.416;2023-01-30T08:02:35;24.33;;;11.23;;
66609;SDS011;53468;48.276;14.416;2023-01-30T08:07:38;22.77;;;10.65;;
66609;SDS011;53468;48.276;14.416;2023-01-30T08:12:40;22.88;;;11.27;;
66609;SDS011;53468;48.276;14.416;2023-01-30T08:17:43;22.92;;;11.55;;
66609;SDS011;53468;48.276;14.416;2023-01-30T08:22:54;23.70;;;11.70;;
66609;SDS011;53468;48.276;14.416;2023-01-30T08:27:57;23.75;;;12.07;;
66609;SDS011;53468;48.276;14.416;2023-01-30T08:32:59;22.70;;;10.73;;
66609;SDS011;53468;48.276;14.416;2023-01-30T08:38:05;24.15;;;10.65;;
66609;SDS011;53468;48.276;14.416;2023-01-30T08:43:08;17.15;;;8.98;;
66609;SDS011;53468;48.276;14.416;2023-01-30T08:48:10;20.67;;;9.77;;
66609;SDS011;53468;48.276;14.416;2023-01-30T08:53:13;20.70;;;9.32;;
66609;SDS011;53468;48.276;14.416;2023-01-30T08:58:15;17.75;;;8.88;;
66609;SDS011;53468;48.276;14.416;2023-01-30T09:03:18;16.92;;;8.02;;
66609;SDS011;53468;48.276;14.416;2023-01-30T09:08:21;19.27;;;9.32;;
66609;SDS011;53468;48.276;14.416;2023-01-30T09:13:24;17.50;;;8.88;;
66609;SDS011;53468;48.276;14.416;2023-01-30T09:18:27;18.55;;;8.95;;
66609;SDS011;53468;48.276;14.416;2023-01-30T09:23:30;18.67;;;8.18;;
66609;SDS011;53468;48.276;14.416;2023-01-30T09:28:33;19.38;;;9.52;;
66609;SDS011;53468;48.276;14.416;2023-01-30T09:33:35;13.52;;;7.50;;
66609;SDS011;53468;48.276;14.416;2023-01-30T09:38:39;18.98;;;8.43;;
66609;SDS011;53468;48.276;14.416;2023-01-30T09:43:49;15.10;;;7.65;;
66609;SDS011;53468;48.276;14.416;2023-01-30T09:49:04;18.23;;;8.00;;
66609;SDS011;53468;48.276;14.416;2023-01-30T09:54:20;13.45;;;7.32;;
66609;SDS011;53468;48.276;14.416;2023-01-30T09:59:26;13.85;;;7.57;;
66609;SDS011;53468;48.276;14.416;2023-01-30T10:04:35;16.77;;;9.20;;
66609;SDS011;53468;48.276;14.416;2023-01-30T10:09:49;14.30;;;7.30;;
66609;SDS011;53468;48.276;14.416;2023-01-30T10:20:36;14.45;;;7.95;;
66609;SDS011;53468;48.276;14.416;2023-01-30T10:25:45;20.70;;;8.47;;
66609;SDS011;53468;48.276;14.416;2023-01-30T10:30:51;13.93;;;7.75;;
66609;SDS011;53468;48.276;14.416;2023-01-30T10:35:58;13.07;;;7.85;;
66609;SDS011;53468;48.276;14.416;2023-01-30T10:41:06;14.27;;;7.97;;
66609;SDS011;53468;48.276;14.416;2023-01-30T10:46:18;16.45;;;8.20;;
66609;SDS011;53468;48.276;14.416;2023-01-30T10:51:33;13.10;;;7.60;;
66609;SDS011;53468;48.276;14.416;2023-01-30T10:56:47;14.75;;;6.40;;
66609;SDS011;53468;48.276;14.416;2023-01-30T11:01:59;12.60;;;7.27;;
66609;SDS011;53468;48.276;14.416;2023-01-30T11:07:13;15.13;;;7.60;;
66609;SDS011;53468;48.276;14.416;2023-01-30T11:12:30;15.13;;;7.10;;
66609;SDS011;53468;48.276;14.416;2023-01-30T11:17:34;11.57;;;5.65;;
66609;SDS011;53468;48.276;14.416;2023-01-30T11:22:37;12.30;;;6.03;;
66609;SDS011;53468;48.276;14.416;2023-01-30T11:28:06;10.93;;;5.45;;
66609;SDS011;53468;48.276;14.416;2023-01-30T11:33:10;12.27;;;6.32;;
66609;SDS011;53468;48.276;14.416;2023-01-30T11:38:19;10.93;;;6.55;;
66609;SDS011;53468;48.276;14.416;2023-01-30T11:43:24;11.88;;;6.28;;
66609;SDS011;53468;48.276;14.416;2023-01-30T11:48:29;12.50;;;6.03;;
66609;SDS011;53468;48.276;14.416;2023-01-30T11:53:35;11.43;;;5.68;;
66609;SDS011;53468;48.276;14.416;2023-01-30T11:58:40;12.23;;;6.15;;
66609;SDS011;53468;48.276;14.416;2023-01-30T12:03:46;9.80;;;5.18;;
66609;SDS011;53468;48.276;14.416;2023-01-30T12:08:50;9.32;;;5.65;;
66609;SDS011;53468;48.276;14.416;2023-01-30T12:13:56;13.30;;;6.25;;
66609;SDS011;53468;48.276;14.416;2023-01-30T12:19:12;9.02;;;5.07;;
66609;SDS011;53468;48.276;14.416;2023-01-30T12:24:27;15.27;;;5.68;;
66609;SDS011;53468;48.276;14.416;2023-01-30T12:29:34;9.75;;;5.13;;
66609;SDS011;53468;48.276;14.416;2023-01-30T12:34:39;9.13;;;4.70;;
66609;SDS011;53468;48.276;14.416;2023-01-30T12:39:46;10.43;;;4.78;;
66609;SDS011;53468;48.276;14.416;2023-01-30T12:45:00;12.07;;;5.85;;
66609;SDS011;53468;48.276;14.416;2023-01-30T12:50:21;10.43;;;5.68;;
66609;SDS011;53468;48.276;14.416;2023-01-30T12:55:34;10.63;;;5.65;;
66609;SDS011;53468;48.276;14.416;2023-01-30T13:00:48;11.50;;;6.18;;
66609;SDS011;53468;48.276;14.416;2023-01-30T13:05:59;14.05;;;6.18;;
66609;SDS011;53468;48.276;14.416;2023-01-30T13:11:20;10.95;;;5.88;;
66609;SDS011;53468;48.276;14.416;2023-01-30T13:21:48;13.32;;;6.60;;
66609;SDS011;53468;48.276;14.416;2023-01-30T13:26:52;11.52;;;5.50;;
66609;SDS011;53468;48.276;14.416;2023-01-30T13:32:00;13.43;;;6.40;;
66609;SDS011;53468;48.276;14.416;2023-01-30T13:37:07;14.40;;;6.38;;
66609;SDS011;53468;48.276;14.416;2023-01-30T13:42:16;12.73;;;6.20;;
66609;SDS011;53468;48.276;14.416;2023-01-30T13:47:34;16.85;;;7.30;;
66609;SDS011;53468;48.276;14.416;2023-01-30T13:52:45;16.38;;;7.93;;
66609;SDS011;53468;48.276;14.416;2023-01-30T13:57:54;15.90;;;9.25;;
66609;SDS011;53468;48.276;14.416;2023-01-30T14:08:32;18.03;;;8.87;;
66609;SDS011;53468;48.276;14.416;2023-01-30T14:13:41;19.13;;;8.85;;
66609;SDS011;53468;48.276;14.416;2023-01-30T14:18:54;15.73;;;8.15;;
66609;SDS011;53468;48.276;14.416;2023-01-30T14:23:57;15.98;;;8.48;;
66609;SDS011;53468;48.276;14.416;2023-01-30T14:29:05;17.52;;;7.57;;
66609;SDS011;53468;48.276;14.416;2023-01-30T14:39:49;22.00;;;8.82;;
66609;SDS011;53468;48.276;14.416;2023-01-30T14:44:58;16.63;;;8.55;;
66609;SDS011;53468;48.276;14.416;2023-01-30T14:50:12;17.30;;;9.90;;
66609;SDS011;53468;48.276;14.416;2023-01-30T14:55:21;17.10;;;9.18;;
66609;SDS011;53468;48.276;14.416;2023-01-30T15:00:26;15.88;;;7.97;;
66609;SDS011;53468;48.276;14.416;2023-01-30T15:05:32;14.95;;;7.88;;
66609;SDS011;53468;48.276;14.416;2023-01-30T15:16:06;16.02;;;8.57;;
66609;SDS011;53468;48.276;14.416;2023-01-30T15:21:27;16.97;;;7.83;;
66609;SDS011;53468;48.276;14.416;2023-01-30T15:26:49;15.98;;;8.10;;
66609;SDS011;53468;48.276;14.416;2023-01-30T15:32:13;17.88;;;6.75;;
66609;SDS011;53468;48.276;14.416;2023-01-30T15:37:29;21.65;;;9.13;;
66609;SDS011;53468;48.276;14.416;2023-01-30T15:42:34;22.52;;;8.68;;
66609;SDS011;53468;48.276;14.416;2023-01-30T15:53:10;21.73;;;10.30;;
66609;SDS011;53468;48.276;14.416;2023-01-30T15:58:17;17.92;;;9.68;;
66609;SDS011;53468;48.276;14.416;2023-01-30T16:03:23;12.05;;;8.13;;
66609;SDS011;53468;48.276;14.416;2023-01-30T16:08:27;17.05;;;8.73;;
66609;SDS011;53468;48.276;14.416;2023-01-30T16:13:33;17.05;;;8.05;;
66609;SDS011;53468;48.276;14.416;2023-01-30T16:18:39;14.48;;;7.50;;
66609;SDS011;53468;48.276;14.416;2023-01-30T16:23:51;16.55;;;7.80;;
66609;SDS011;53468;48.276;14.416;2023-01-30T16:28:59;12.30;;;7.57;;
66609;SDS011;53468;48.276;14.416;2023-01-30T16:34:03;13.63;;;7.63;;
66609;SDS011;53468;48.276;14.416;2023-01-30T16:44:28;13.90;;;8.02;;
66609;SDS011;53468;48.276;14.416;2023-01-30T16:49:41;11.27;;;6.95;;
66609;SDS011;53468;48.276;14.416;2023-01-30T16:54:47;14.93;;;7.40;;
66609;SDS011;53468;48.276;14.416;2023-01-30T16:59:52;11.48;;;5.45;;
66609;SDS011;53468;48.276;14.416;2023-01-30T17:04:55;12.77;;;6.53;;
66609;SDS011;53468;48.276;14.416;2023-01-30T17:15:55;15.18;;;7.03;;
66609;SDS011;53468;48.276;14.416;2023-01-30T17:21:18;12.07;;;6.10;;
66609;SDS011;53468;48.276;14.416;2023-01-30T17:26:20;12.27;;;5.57;;
66609;SDS011;53468;48.276;14.416;2023-01-30T17:31:24;11.75;;;5.80;;
66609;SDS011;53468;48.276;14.416;2023-01-30T17:36:27;11.23;;;5.47;;
66609;SDS011;53468;48.276;14.416;2023-01-30T17:41:31;13.10;;;5.22;;
66609;SDS011;53468;48.276;14.416;2023-01-30T17:46:38;9.90;;;4.70;;
66609;SDS011;53468;48.276;14.416;2023-01-30T17:51:41;9.13;;;5.25;;
66609;SDS011;53468;48.276;14.416;2023-01-30T17:56:44;14.60;;;6.00;;
66609;SDS011;53468;48.276;14.416;2023-01-30T18:01:50;11.30;;;6.07;;
66609;SDS011;53468;48.276;14.416;2023-01-30T18:06:53;12.10;;;6.18;;
66609;SDS011;53468;48.276;14.416;2023-01-30T18:12:02;12.38;;;5.20;;
66609;SDS011;53468;48.276;14.416;2023-01-30T18:17:06;9.40;;;5.60;;
66609;SDS011;53468;48.276;14.416;2023-01-30T18:22:10;9.50;;;5.78;;
66609;SDS011;53468;48.276;14.416;2023-01-30T18:27:11;11.77;;;6.35;;
66609;SDS011;53468;48.276;14.416;2023-01-30T18:32:15;11.98;;;6.72;;
66609;SDS011;53468;48.276;14.416;2023-01-30T18:37:17;13.50;;;6.65;;
66609;SDS011;53468;48.276;14.416;2023-01-30T18:42:19;13.88;;;7.05;;
66609;SDS011;53468;48.276;14.416;2023-01-30T18:47:23;12.27;;;6.43;;
66609;SDS011;53468;48.276;14.416;2023-01-30T18:52:27;12.38;;;6.30;;
66609;SDS011;53468;48.276;14.416;2023-01-30T18:57:29;14.88;;;6.88;;
66609;SDS011;53468;48.276;14.416;2023-01-30T19:02:32;8.13;;;4.80;;
66609;SDS011;53468;48.276;14.416;2023-01-30T19:07:34;12.70;;;6.07;;
66609;SDS011;53468;48.276;14.416;2023-01-30T19:12:36;9.20;;;5.05;;
66609;SDS011;53468;48.276;14.416;2023-01-30T19:17:57;13.18;;;7.05;;
66609;SDS011;53468;48.276;14.416;2023-01-30T19:22:59;15.68;;;6.35;;
66609;SDS011;53468;48.276;14.416;2023-01-30T19:28:01;11.32;;;5.57;;
66609;SDS011;53468;48.276;14.416;2023-01-30T19:33:07;11.85;;;6.32;;
66609;SDS011;53468;48.276;14.416;2023-01-30T19:38:09;11.38;;;6.20;;
66609;SDS011;53468;48.276;14.416;2023-01-30T19:43:11;6.75;;;4.38;;
66609;SDS011;53468;48.276;14.416;2023-01-30T19:48:15;10.98;;;5.47;;
66609;SDS011;53468;48.276;14.416;2023-01-30T19:53:17;12.02;;;6.03;;
66609;SDS011;53468;48.276;14.416;2023-01-30T19:58:20;11.50;;;6.22;;
66609;SDS011;53468;48.276;14.416;2023-01-30T20:03:23;10.18;;;5.57;;
66609;SDS011;53468;48.276;14.416;2023-01-30T20:08:25;12.50;;;5.97;;
66609;SDS011;53468;48.276;14.416;2023-01-30T20:13:27;13.90;;;7.78;;
66609;SDS011;53468;48.276;14.416;2023-01-30T20:18:54;12.27;;;7.07;;
66609;SDS011;53468;48.276;14.416;2023-01-30T20:23:57;13.68;;;7.70;;
66609;SDS011;53468;48.276;14.416;2023-01-30T20:29:00;12.52;;;6.40;;
66609;SDS011;53468;48.276;14.416;2023-01-30T20:34:05;12.57;;;6.97;;
66609;SDS011;53468;48.276;14.416;2023-01-30T20:39:09;10.80;;;6.38;;
66609;SDS011;53468;48.276;14.416;2023-01-30T20:44:12;15.18;;;7.88;;
66609;SDS011;53468;48.276;14.416;2023-01-30T20:49:17;19.02;;;7.47;;
66609;SDS011;53468;48.276;14.416;2023-01-30T20:54:21;13.02;;;6.13;;
66609;SDS011;53468;48.276;14.416;2023-01-30T20:59:23;14.75;;;7.05;;
66609;SDS011;53468;48.276;14.416;2023-01-30T21:04:27;14.57;;;6.07;;
66609;SDS011;53468;48.276;14.416;2023-01-30T21:09:29;12.15;;;6.05;;
66609;SDS011;53468;48.276;14.416;2023-01-30T21:14:32;10.80;;;6.20;;
66609;SDS011;53468;48.276;14.416;2023-01-30T21:19:37;11.20;;;5.60;;
66609;SDS011;53468;48.276;14.416;2023-01-30T21:24:39;12.18;;;5.50;;
66609;SDS011;53468;48.276;14.416;2023-01-30T21:29:41;11.20;;;6.25;;
66609;SDS011;53468;48.276;14.416;2023-01-30T21:34:44;12.32;;;5.18;;
66609;SDS011;53468;48.276;14.416;2023-01-30T21:39:46;11.57;;;5.68;;
66609;SDS011;53468;48.276;14.416;2023-01-30T21:45:06;12.38;;;5.53;;
66609;SDS011;53468;48.276;14.416;2023-01-30T21:50:10;10.55;;;5.53;;
66609;SDS011;53468;48.276;14.416;2023-01-30T21:55:12;11.73;;;5.85;;
66609;SDS011;53468;48.276;14.416;2023-01-30T22:00:14;11.20;;;5.97;;
66609;SDS011;53468;48.276;14.416;2023-01-30T22:05:18;12.32;;;5.70;;
66609;SDS011;53468;48.276;14.416;2023-01-30T22:10:20;11.25;;;5.75;;
66609;SDS011;53468;48.276;14.416;2023-01-30T22:15:22;13.98;;;5.93;;
66609;SDS011;53468;48.276;14.416;2023-01-30T22:20:26;14.98;;;5.45;;
66609;SDS011;53468;48.276;14.416;2023-01-30T22:25:28;7.38;;;4.00;;
66609;SDS011;53468;48.276;14.416;2023-01-30T22:30:30;10.35;;;5.50;;
66609;SDS011;53468;48.276;14.416;2023-01-30T22:35:33;10.68;;;5.50;;
66609;SDS011;53468;48.276;14.416;2023-01-30T22:40:35;11.80;;;5.60;;
66609;SDS011;53468;48.276;14.416;2023-01-30T22:45:37;11.02;;;5.13;;
66609;SDS011;53468;48.276;14.416;2023-01-30T22:50:41;10.45;;;5.45;;
66609;SDS011;53468;48.276;14.416;2023-01-30T22:55:43;10.65;;;5.28;;
66609;SDS011;53468;48.276;14.416;2023-01-30T23:00:45;11.85;;;5.97;;
66609;SDS011;53468;48.276;14.416;2023-01-30T23:05:58;11.95;;;5.50;;
66609;SDS011;53468;48.276;14.416;2023-01-30T23:11:05;9.98;;;5.00;;
66609;SDS011;53468;48.276;14.416;2023-01-30T23:16:10;11.35;;;5.43;;
66609;SDS011;53468;48.276;14.416;2023-01-30T23:21:15;12.35;;;5.68;;
66609;SDS011;53468;48.276;14.416;2023-01-30T23:26:17;13.43;;;4.95;;
66609;SDS011;53468;48.276;14.416;2023-01-30T23:31:23;9.52;;;5.25;;
66609;SDS011;53468;48.276;14.416;2023-01-30T23:36:27;11.20;;;4.88;;
66609;SDS011;53468;48.276;14.416;2023-01-30T23:41:31;12.93;;;4.57;;
66609;SDS011;53468;48.276;14.416;2023-01-30T23:46:34;11.20;;;5.60;;
66609;SDS011;53468;48.276;14.416;2023-01-30T23:51:40;11.13;;;4.90;;
66609;SDS011;53468;48.276;14.416;2023-01-30T23:56:43;14.05;;;5.10;;
